Terminal Aerodrome Forecast
Issued by NWS

Home | Current Version | Previous Version | Text Only | Print | Product List | Glossary On
Versions: 1 2 3 4 5 6 7 8 9 10 11 12 13 14
000
FTUS43 KDDC 172331
TAFGCK
TAF
KGCK 172331Z 1800/1824 16016G25KT P6SM FEW250
     FM180600 17011G21KT P6SM FEW200 WS020/19040KT
     FM181100 18011KT P6SM FEW200 WS020/21040KT
     FM181500 19015G25KT P6SM FEW200=

USA.gov is the U.S. government's official web portal to all federal, state and local government web resources and services.